Terminal Aerodrome Forecast
Issued by NWS Spokane, WA

Home | Current Version | Previous Version | Text Only | Print | Product List | Glossary On
Versions: 1 2 3 4 5 6 7 8 9 10 11 12 13 14 15 16 17 18
000
FTUS46 KOTX 191729
TAFGEG
TAF
KGEG 191729Z 1918/2018 19012KT P6SM SCT100 BKN150 BKN200
     FM200400 19013G21KT P6SM -RA OVC060 WS020/22040KT
     FM201300 20013G22KT 6SM -RA BR BKN011 OVC020=

USA.gov is the U.S. government's official web portal to all federal, state and local government web resources and services.